createdAt,value
2023-03-28T00:00:13.473Z,16.4
2023-03-28T00:01:15.655Z,16.4
2023-03-28T00:02:17.755Z,16.5
2023-03-28T00:03:20.178Z,16.5
2023-03-28T00:04:22.317Z,16.4
2023-03-28T00:05:24.616Z,16.4
2023-03-28T00:06:27.226Z,16.4
2023-03-28T00:07:29.519Z,16.5
2023-03-28T00:08:31.644Z,16.5
2023-03-28T00:09:33.377Z,16.5
2023-03-28T00:10:35.495Z,16.5
2023-03-28T00:11:37.388Z,16.5
2023-03-28T00:12:39.300Z,16.5
2023-03-28T00:13:41.435Z,16.5
2023-03-28T00:14:43.176Z,16.4
2023-03-28T00:15:45.319Z,16.5
2023-03-28T00:16:47.591Z,16.5
2023-03-28T00:17:49.838Z,16.4
2023-03-28T00:18:52.014Z,16.4
2023-03-28T00:19:54.122Z,16.5
2023-03-28T00:20:56.236Z,16.5
2023-03-28T00:21:58.434Z,16.5
2023-03-28T00:23:00.562Z,16.4
2023-03-28T00:24:02.752Z,16.5
2023-03-28T00:25:04.838Z,16.5
2023-03-28T00:26:06.536Z,16.6
2023-03-28T00:27:08.829Z,16.5
2023-03-28T00:28:10.787Z,16.5
2023-03-28T00:29:12.957Z,16.6
2023-03-28T00:30:15.166Z,16.5
2023-03-28T00:31:17.136Z,16.4
2023-03-28T00:32:19.459Z,16.5
2023-03-28T00:33:21.549Z,16.6
2023-03-28T00:34:23.233Z,16.5
2023-03-28T00:35:25.373Z,16.5
2023-03-28T00:36:27.578Z,16.5
2023-03-28T00:37:29.659Z,16.5
2023-03-28T00:38:35.457Z,16.5
2023-03-28T00:39:37.153Z,16.5
2023-03-28T00:40:39.274Z,16.6
2023-03-28T00:41:41.351Z,16.5
2023-03-28T00:42:43.300Z,16.5
2023-03-28T00:43:45.046Z,16.6
2023-03-28T00:44:47.056Z,16.4
2023-03-28T00:46:54.250Z,16.6
2023-03-28T00:47:56.495Z,16.5
2023-03-28T00:48:58.620Z,16.5
2023-03-28T00:50:00.788Z,16.5
2023-03-28T00:51:02.929Z,16.5
2023-03-28T00:52:05.084Z,16.5
2023-03-28T00:53:07.185Z,16.6
2023-03-28T00:54:09.077Z,16.6
2023-03-28T00:55:10.977Z,16.5
2023-03-28T00:56:13.046Z,16.6
2023-03-28T00:57:15.089Z,16.6
2023-03-28T00:58:17.538Z,16.6
2023-03-28T00:59:19.285Z,16.6
2023-03-28T01:00:21.524Z,16.6
2023-03-28T01:01:23.750Z,16.6
2023-03-28T01:02:25.840Z,16.6
2023-03-28T01:03:28.588Z,16.6
2023-03-28T01:04:31.122Z,16.6
2023-03-28T01:05:33.189Z,16.5
2023-03-28T01:06:35.267Z,16.5
2023-03-28T01:07:37.391Z,16.5
2023-03-28T01:08:39.324Z,16.6
2023-03-28T01:09:41.517Z,16.6
2023-03-28T01:10:43.796Z,16.6
2023-03-28T01:11:45.892Z,16.5
2023-03-28T01:12:48.043Z,16.5
2023-03-28T01:13:50.296Z,16.6
2023-03-28T01:14:52.464Z,16.5
2023-03-28T01:15:54.882Z,16.5
2023-03-28T01:16:57.262Z,16.5
2023-03-28T01:17:59.313Z,16.6
2023-03-28T01:19:01.577Z,16.6
2023-03-28T01:20:03.508Z,16.6
2023-03-28T01:21:05.618Z,16.6
2023-03-28T01:22:07.748Z,16.6
2023-03-28T01:23:09.825Z,16.7
2023-03-28T01:24:13.004Z,16.7
2023-03-28T01:25:14.877Z,16.7
2023-03-28T01:26:16.790Z,16.6
2023-03-28T01:27:18.876Z,16.7
2023-03-28T01:28:20.768Z,16.6
2023-03-28T01:29:22.892Z,16.6
2023-03-28T01:30:24.807Z,16.6
2023-03-28T01:31:26.997Z,16.5
2023-03-28T01:32:29.232Z,16.6
2023-03-28T01:33:31.065Z,16.6
2023-03-28T01:34:33.187Z,16.6
2023-03-28T01:35:35.129Z,16.6
2023-03-28T01:36:37.414Z,16.6
2023-03-28T01:37:39.481Z,16.6
2023-03-28T01:38:41.373Z,16.5
2023-03-28T01:39:43.505Z,16.5
2023-03-28T01:40:45.603Z,16.5
2023-03-28T01:41:47.710Z,16.7
2023-03-28T01:42:49.396Z,16.6
2023-03-28T01:43:51.102Z,16.5
2023-03-28T01:44:53.098Z,16.6
2023-03-28T01:45:54.876Z,16.6
2023-03-28T01:46:57.049Z,16.7
2023-03-28T01:47:59.342Z,16.6
2023-03-28T01:49:01.583Z,16.7
2023-03-28T01:50:03.537Z,16.7
2023-03-28T01:51:05.655Z,16.7
2023-03-28T01:52:07.732Z,16.7
2023-03-28T01:53:09.977Z,16.7
2023-03-28T01:54:11.654Z,16.7
2023-03-28T01:55:13.776Z,16.7
2023-03-28T01:56:15.956Z,16.7
2023-03-28T01:57:18.326Z,16.6
2023-03-28T01:58:20.785Z,16.6
2023-03-28T01:59:22.921Z,16.7
2023-03-28T02:00:25.041Z,16.5
2023-03-28T02:01:27.572Z,16.7
2023-03-28T02:02:30.053Z,16.6
2023-03-28T02:03:32.572Z,16.6
2023-03-28T02:04:34.255Z,16.6
2023-03-28T02:05:36.376Z,16.6
2023-03-28T02:06:38.468Z,16.6
2023-03-28T02:07:40.339Z,16.6
2023-03-28T02:08:42.210Z,16.6
2023-03-28T02:09:44.111Z,16.6
2023-03-28T02:10:46.224Z,16.7
2023-03-28T02:11:48.115Z,16.6
2023-03-28T02:12:50.221Z,16.6
2023-03-28T02:13:52.318Z,16.7
2023-03-28T02:14:54.401Z,16.7
2023-03-28T02:15:56.560Z,16.6
2023-03-28T02:16:59.242Z,16.7
2023-03-28T02:18:01.379Z,16.7
2023-03-28T02:19:03.756Z,16.7
2023-03-28T02:20:05.861Z,16.6
2023-03-28T02:21:07.994Z,16.6
2023-03-28T02:22:10.092Z,16.7
2023-03-28T02:23:12.009Z,16.6
2023-03-28T02:24:13.906Z,16.6
2023-03-28T02:25:15.795Z,16.6
2023-03-28T02:26:17.897Z,16.6
2023-03-28T02:27:19.993Z,16.7
2023-03-28T02:28:21.858Z,16.6
2023-03-28T02:29:23.758Z,16.7
2023-03-28T02:30:25.829Z,16.8
2023-03-28T02:31:27.840Z,16.6
2023-03-28T02:32:30.254Z,16.7
2023-03-28T02:33:32.292Z,16.7
2023-03-28T02:34:34.404Z,16.7
2023-03-28T02:35:36.162Z,16.7
2023-03-28T02:36:38.383Z,16.7
2023-03-28T02:37:40.474Z,16.6
2023-03-28T02:38:42.156Z,16.7
2023-03-28T02:39:44.230Z,16.7
2023-03-28T02:40:46.377Z,16.7
2023-03-28T02:41:48.542Z,16.7
2023-03-28T02:42:50.675Z,16.6
2023-03-28T02:43:52.747Z,16.7
2023-03-28T02:44:54.823Z,16.6
2023-03-28T02:45:57.152Z,16.7
2023-03-28T02:47:01.777Z,16.6
2023-03-28T02:48:03.759Z,16.7
2023-03-28T02:49:06.013Z,16.7
2023-03-28T02:50:07.955Z,16.6
2023-03-28T02:51:10.041Z,16.7
2023-03-28T02:52:12.171Z,16.6
2023-03-28T02:53:14.310Z,16.7
2023-03-28T02:54:16.157Z,16.7
2023-03-28T02:55:18.123Z,16.7
2023-03-28T02:56:20.122Z,16.6
2023-03-28T02:57:21.836Z,16.6
2023-03-28T02:58:23.769Z,16.6
2023-03-28T02:59:25.659Z,16.7
2023-03-28T03:00:27.777Z,16.7
2023-03-28T03:01:29.982Z,16.7
2023-03-28T03:02:32.081Z,16.7
2023-03-28T03:03:34.500Z,16.8
2023-03-28T03:04:36.856Z,16.7
2023-03-28T03:05:38.968Z,16.7
2023-03-28T03:06:40.917Z,16.7
2023-03-28T03:07:42.848Z,16.7
2023-03-28T03:08:44.550Z,16.7
2023-03-28T03:09:46.679Z,16.7
2023-03-28T03:10:48.805Z,16.6
2023-03-28T03:11:50.701Z,16.7
2023-03-28T03:12:52.783Z,16.7
2023-03-28T03:13:54.704Z,16.6
2023-03-28T03:14:56.657Z,16.7
2023-03-28T03:15:59.451Z,16.6
2023-03-28T03:17:02.827Z,16.6
2023-03-28T03:18:04.605Z,16.6
2023-03-28T03:19:06.994Z,16.7
2023-03-28T03:20:08.929Z,16.6
2023-03-28T03:21:11.043Z,16.7
2023-03-28T03:23:17.923Z,16.6
2023-03-28T03:24:19.991Z,16.6
2023-03-28T03:25:21.680Z,16.6
2023-03-28T03:26:23.597Z,16.6
2023-03-28T03:27:25.499Z,16.6
2023-03-28T03:28:27.644Z,16.6
2023-03-28T03:30:34.570Z,16.5
2023-03-28T03:31:36.735Z,16.6
2023-03-28T03:32:39.014Z,16.6
2023-03-28T03:33:40.849Z,16.5
2023-03-28T03:34:42.770Z,16.5
2023-03-28T03:35:44.924Z,16.5
2023-03-28T03:36:47.405Z,16.5
2023-03-28T03:37:49.465Z,16.7
2023-03-28T03:38:51.569Z,16.5
2023-03-28T03:39:53.460Z,16.5
2023-03-28T03:40:55.564Z,16.6
2023-03-28T03:41:57.645Z,16.5
2023-03-28T03:43:00.033Z,16.5
2023-03-28T03:44:02.399Z,16.5
2023-03-28T03:45:04.645Z,16.6
2023-03-28T03:46:06.254Z,16.6
2023-03-28T03:47:08.346Z,16.7
2023-03-28T03:48:10.526Z,16.5
2023-03-28T03:49:12.844Z,16.5
2023-03-28T03:50:15.029Z,16.5
2023-03-28T03:51:17.269Z,16.6
2023-03-28T03:52:19.442Z,16.6
2023-03-28T03:53:21.555Z,16.5
2023-03-28T03:54:23.694Z,16.5
2023-03-28T03:55:25.783Z,16.5
2023-03-28T03:56:27.475Z,16.5
2023-03-28T03:57:29.585Z,16.5
2023-03-28T03:58:31.684Z,16.5
2023-03-28T03:59:33.674Z,16.5
2023-03-28T04:00:35.779Z,16.6
2023-03-28T04:01:37.980Z,16.5
2023-03-28T04:02:40.567Z,16.5
2023-03-28T04:03:43.285Z,16.4
2023-03-28T04:04:45.618Z,16.5
2023-03-28T04:05:47.573Z,16.4
2023-03-28T04:06:49.686Z,16.4
2023-03-28T04:07:51.798Z,16.4
2023-03-28T04:08:53.716Z,16.4
2023-03-28T04:09:55.876Z,16.5
2023-03-28T04:10:57.952Z,16.5
2023-03-28T04:11:59.842Z,16.5
2023-03-28T04:13:01.975Z,16.4
2023-03-28T04:14:03.663Z,16.4
2023-03-28T04:15:05.570Z,16.5
2023-03-28T04:16:07.520Z,16.4
2023-03-28T04:17:09.581Z,16.5
2023-03-28T04:18:11.565Z,16.5
2023-03-28T04:19:13.915Z,16.4
2023-03-28T04:20:16.048Z,16.4
2023-03-28T04:21:18.080Z,16.4
2023-03-28T04:22:20.017Z,16.4
2023-03-28T04:23:21.919Z,16.5
2023-03-28T04:24:23.592Z,16.4
2023-03-28T04:25:25.732Z,16.4
2023-03-28T04:26:27.494Z,16.5
2023-03-28T04:27:29.373Z,16.4
2023-03-28T04:28:31.478Z,16.5
2023-03-28T04:29:33.418Z,16.4
2023-03-28T04:30:35.525Z,16.5
2023-03-28T04:31:37.793Z,16.4
2023-03-28T04:32:39.864Z,16.4
2023-03-28T04:33:41.700Z,16.4
2023-03-28T04:34:43.400Z,16.4
2023-03-28T04:35:45.531Z,16.6
2023-03-28T04:36:47.788Z,16.5
2023-03-28T04:37:49.916Z,16.4
2023-03-28T04:38:52.147Z,16.4
2023-03-28T04:39:53.882Z,16.4
2023-03-28T04:40:56.137Z,16.3
2023-03-28T04:41:58.297Z,16.4
2023-03-28T04:43:00.185Z,16.3
2023-03-28T04:44:02.178Z,16.4
2023-03-28T04:45:04.298Z,16.4
2023-03-28T04:46:06.532Z,16.4
2023-03-28T04:47:08.458Z,16.4
2023-03-28T04:48:10.415Z,16.5
2023-03-28T04:49:12.335Z,16.4
2023-03-28T04:50:14.491Z,16.3
2023-03-28T04:51:16.414Z,16.4
2023-03-28T04:52:18.595Z,16.4
2023-03-28T04:53:20.730Z,16.4
2023-03-28T04:54:22.869Z,16.4
2023-03-28T04:55:24.790Z,16.3
2023-03-28T04:56:26.715Z,16.3
2023-03-28T04:57:28.836Z,16.3
2023-03-28T04:58:30.934Z,16.4
2023-03-28T04:59:32.868Z,16.3
2023-03-28T05:00:34.567Z,16.4
2023-03-28T05:01:36.773Z,16.4
2023-03-28T05:02:38.967Z,16.4
2023-03-28T05:03:41.129Z,16.4
2023-03-28T05:04:43.073Z,16.4
2023-03-28T05:05:45.179Z,16.3
2023-03-28T05:06:47.354Z,16.4
2023-03-28T05:07:49.471Z,16.3
2023-03-28T05:08:51.639Z,16.3
2023-03-28T05:09:53.779Z,16.5
2023-03-28T05:10:55.899Z,16.4
2023-03-28T05:11:58.134Z,16.4
2023-03-28T05:13:00.252Z,16.3
2023-03-28T05:14:02.184Z,16.3
2023-03-28T05:15:04.299Z,16.3
2023-03-28T05:16:06.524Z,16.3
2023-03-28T05:17:08.842Z,16.3
2023-03-28T05:18:10.962Z,16.3
2023-03-28T05:19:12.687Z,16.3
2023-03-28T05:20:14.639Z,16.4
2023-03-28T05:21:16.524Z,16.3
2023-03-28T05:22:18.432Z,16.5
2023-03-28T05:23:20.356Z,16.4
2023-03-28T05:24:22.537Z,16.3
2023-03-28T05:25:24.757Z,16.4
2023-03-28T05:26:26.942Z,16.5
2023-03-28T05:27:29.178Z,16.4
2023-03-28T05:28:31.057Z,16.4
2023-03-28T05:29:33.067Z,16.4
2023-03-28T05:30:35.167Z,16.3
2023-03-28T05:31:37.143Z,16.2
2023-03-28T05:32:39.487Z,16.3
2023-03-28T05:33:41.171Z,16.3
2023-03-28T05:34:43.271Z,16.2
2023-03-28T05:35:45.490Z,16.3
2023-03-28T05:36:47.748Z,16.3
2023-03-28T05:37:49.896Z,16.2
2023-03-28T05:38:52.038Z,16.4
2023-03-28T05:39:54.258Z,16.3
2023-03-28T05:40:56.230Z,16.3
2023-03-28T05:41:58.562Z,16.3
2023-03-28T05:43:00.707Z,16.4
2023-03-28T05:44:02.653Z,16.2
2023-03-28T05:45:04.780Z,16.3
2023-03-28T05:46:06.951Z,16.4
2023-03-28T05:47:09.136Z,16.3
2023-03-28T05:48:11.357Z,16.3
2023-03-28T05:49:13.499Z,16.3
2023-03-28T05:50:15.651Z,16.2
2023-03-28T05:51:17.765Z,16.3
2023-03-28T05:52:19.926Z,16.3
2023-03-28T05:53:22.027Z,16.3
2023-03-28T05:54:24.145Z,16.4
2023-03-28T05:55:26.314Z,16.2
2023-03-28T05:56:28.467Z,16.3
2023-03-28T05:57:30.577Z,16.3
2023-03-28T05:58:32.517Z,16.3
2023-03-28T05:59:34.652Z,16.3
2023-03-28T06:00:36.609Z,16.3
2023-03-28T06:01:39.210Z,16.2
2023-03-28T06:02:45.661Z,16.3
2023-03-28T06:03:48.163Z,16.3
2023-03-28T06:04:50.527Z,16.3
2023-03-28T06:05:52.664Z,16.3
2023-03-28T06:06:54.577Z,16.2
2023-03-28T06:07:56.685Z,16.2
2023-03-28T06:08:58.597Z,16.2
2023-03-28T06:10:00.606Z,16.2
2023-03-28T06:11:03.051Z,16.3
2023-03-28T06:12:04.968Z,16.3
2023-03-28T06:13:07.077Z,16.2
2023-03-28T06:14:09.345Z,16.2
2023-03-28T06:15:11.497Z,16.3
2023-03-28T06:16:13.465Z,16.2
2023-03-28T06:17:15.503Z,16.2
2023-03-28T06:18:18.084Z,16.3
2023-03-28T06:19:20.225Z,16.3
2023-03-28T06:20:22.299Z,16.3
2023-03-28T06:21:24.232Z,16.2
2023-03-28T06:22:26.271Z,16.2
2023-03-28T06:23:28.037Z,16.3
2023-03-28T06:24:30.227Z,16.3
2023-03-28T06:25:32.378Z,16.2
2023-03-28T06:26:34.549Z,16.2
2023-03-28T06:27:36.722Z,16.2
2023-03-28T06:28:38.848Z,16.2
2023-03-28T06:29:40.835Z,16.3
2023-03-28T06:30:42.904Z,16.3
2023-03-28T06:31:44.930Z,16.2
2023-03-28T06:32:47.326Z,16.2
2023-03-28T06:33:49.705Z,16.3
2023-03-28T06:34:51.853Z,16.2
2023-03-28T06:35:53.732Z,16.2
2023-03-28T06:36:55.750Z,16.3
2023-03-28T06:37:57.928Z,16.2
2023-03-28T06:38:59.993Z,16.2
2023-03-28T06:40:02.153Z,16.3
2023-03-28T06:41:04.442Z,16.2
2023-03-28T06:42:06.651Z,16.3
2023-03-28T06:43:08.627Z,16.2
2023-03-28T06:44:10.145Z,16.3
2023-03-28T06:45:12.063Z,16.3
2023-03-28T06:46:14.361Z,16.2
2023-03-28T06:47:16.361Z,16.2
2023-03-28T06:48:18.287Z,16.2
2023-03-28T06:49:20.415Z,16.2
2023-03-28T06:50:22.352Z,16.2
2023-03-28T06:51:24.489Z,16.3
2023-03-28T06:52:26.445Z,16.2
2023-03-28T06:53:28.651Z,16.3
2023-03-28T06:54:30.897Z,16.2
2023-03-28T06:55:33.192Z,16.3
2023-03-28T06:56:35.361Z,16.3
2023-03-28T06:57:37.687Z,16.2
2023-03-28T06:58:39.443Z,16.2
2023-03-28T06:59:41.628Z,16.2
2023-03-28T07:00:43.629Z,16.2
2023-03-28T07:01:45.839Z,16.3
2023-03-28T07:02:47.932Z,16.2
2023-03-28T07:04:55.341Z,16.2
2023-03-28T07:05:57.308Z,16.2
2023-03-28T07:06:59.463Z,16.3
2023-03-28T07:08:01.572Z,16.2
2023-03-28T07:10:08.731Z,16.3
2023-03-28T07:11:10.454Z,16.2
2023-03-28T07:12:12.587Z,16.3
2023-03-28T07:13:14.774Z,16.2
2023-03-28T07:14:16.932Z,16.2
2023-03-28T07:15:20.002Z,16.2
2023-03-28T07:16:22.188Z,16.2
2023-03-28T07:17:24.517Z,16.3
2023-03-28T07:18:26.836Z,16.2
2023-03-28T07:19:28.546Z,16.2
2023-03-28T07:20:30.699Z,16.3
2023-03-28T07:21:32.783Z,16.3
2023-03-28T07:22:34.740Z,16.2
2023-03-28T07:23:36.861Z,16.3
2023-03-28T07:24:38.807Z,16.3
2023-03-28T07:25:40.925Z,16.2
2023-03-28T07:26:43.037Z,16.3
2023-03-28T07:27:45.133Z,16.2
2023-03-28T07:28:47.358Z,16.3
2023-03-28T07:29:49.302Z,16.2
2023-03-28T07:30:51.011Z,16.2
2023-03-28T07:31:53.263Z,16.2
2023-03-28T07:34:00.649Z,16.2
2023-03-28T07:35:02.720Z,16.2
2023-03-28T07:36:04.725Z,16.3
2023-03-28T07:37:06.842Z,16.2
2023-03-28T07:38:08.758Z,16.2
2023-03-28T07:39:11.021Z,16.1
2023-03-28T07:40:12.773Z,16.3
2023-03-28T07:41:14.509Z,16.2
2023-03-28T07:42:16.420Z,16.2
2023-03-28T07:43:18.655Z,16.2
2023-03-28T07:44:20.833Z,16.2
2023-03-28T07:45:22.769Z,16.2
2023-03-28T07:46:25.158Z,16.1
2023-03-28T07:47:27.618Z,16.2
2023-03-28T07:48:29.836Z,16.2
2023-03-28T07:49:31.933Z,16.2
2023-03-28T07:50:34.032Z,16.2
2023-03-28T07:51:35.685Z,16.1
2023-03-28T07:52:37.599Z,16.2
2023-03-28T07:53:39.674Z,16.2
2023-03-28T07:54:41.612Z,16.2
2023-03-28T07:56:48.742Z,16.2
2023-03-28T07:57:50.988Z,16.2
2023-03-28T07:58:53.139Z,16.2
2023-03-28T07:59:55.296Z,16.2
2023-03-28T08:00:57.491Z,16.1
2023-03-28T08:02:00.301Z,16.2
2023-03-28T08:03:02.833Z,16.1
2023-03-28T08:04:05.464Z,16.2
2023-03-28T08:05:08.199Z,16.2
2023-03-28T08:07:15.259Z,16.2
2023-03-28T08:08:17.399Z,16.2
2023-03-28T08:09:19.555Z,16.2
2023-03-28T08:10:21.531Z,16.2
2023-03-28T08:11:23.684Z,16.2
2023-03-28T08:12:25.768Z,16.2
2023-03-28T08:13:27.878Z,16.2
2023-03-28T08:14:29.805Z,16.2
2023-03-28T08:15:31.766Z,16.2
2023-03-28T08:16:34.135Z,16.2
2023-03-28T08:17:36.626Z,16.2
2023-03-28T08:18:38.448Z,16.2
2023-03-28T08:19:40.597Z,16.2
2023-03-28T08:20:42.468Z,16.2
2023-03-28T08:21:44.393Z,16.2
2023-03-28T08:22:46.277Z,16.1
2023-03-28T08:23:48.174Z,16.3
2023-03-28T08:24:50.268Z,16.2
2023-03-28T08:25:52.400Z,16.2
2023-03-28T08:26:54.548Z,16.2
2023-03-28T08:27:56.721Z,16.3
2023-03-28T08:28:58.638Z,16.1
2023-03-28T08:30:00.816Z,16.2
2023-03-28T08:31:03.955Z,16.2
2023-03-28T08:32:06.401Z,16.2
2023-03-28T08:33:08.750Z,16.2
2023-03-28T08:34:11.375Z,16.2
2023-03-28T08:35:13.559Z,16.2
2023-03-28T08:36:15.843Z,16.2
2023-03-28T08:37:18.180Z,16.2
2023-03-28T08:38:20.306Z,16.1
2023-03-28T08:39:22.227Z,16.2
2023-03-28T08:40:24.205Z,16.2
2023-03-28T08:41:26.325Z,16.2
2023-03-28T08:42:28.259Z,16.2
2023-03-28T08:43:30.393Z,16.3
2023-03-28T08:44:32.575Z,16.1
2023-03-28T08:45:34.940Z,16.2
2023-03-28T08:46:37.302Z,16.1
2023-03-28T08:47:39.313Z,16.2
2023-03-28T08:48:41.652Z,16.1
2023-03-28T08:49:43.637Z,16.2
2023-03-28T08:50:45.731Z,16.1
2023-03-28T08:51:47.870Z,16.1
2023-03-28T08:52:49.809Z,16.2
2023-03-28T08:53:51.706Z,16.1
2023-03-28T08:54:53.824Z,16.2
2023-03-28T08:55:55.947Z,16.1
2023-03-28T08:56:58.460Z,16.2
2023-03-28T08:58:00.610Z,16.1
2023-03-28T08:59:02.832Z,16.2
2023-03-28T09:00:04.745Z,16.1
2023-03-28T09:01:06.929Z,16.1
2023-03-28T09:02:09.034Z,16.2
2023-03-28T09:03:11.502Z,16.1
2023-03-28T09:04:14.669Z,16.1
2023-03-28T09:06:22.353Z,16.2
2023-03-28T09:07:24.432Z,16.2
2023-03-28T09:08:26.541Z,16.2
2023-03-28T09:09:28.689Z,16.1
2023-03-28T09:10:30.590Z,16.2
2023-03-28T09:11:32.716Z,16.1
2023-03-28T09:12:34.622Z,16.2
2023-03-28T09:13:36.735Z,16.2
2023-03-28T09:14:38.889Z,16.2
2023-03-28T09:15:40.847Z,16.2
2023-03-28T09:16:43.248Z,16.2
2023-03-28T09:17:45.732Z,16.1
2023-03-28T09:18:48.081Z,16.2
2023-03-28T09:19:50.250Z,16.1
2023-03-28T09:20:52.447Z,16.2
2023-03-28T09:22:59.371Z,16.2
2023-03-28T09:24:01.283Z,16.1
2023-03-28T09:25:03.422Z,16.1
2023-03-28T09:26:05.346Z,16.2
2023-03-28T09:27:07.305Z,16.2
2023-03-28T09:28:09.189Z,16.2
2023-03-28T09:29:11.817Z,16.2
2023-03-28T09:30:13.956Z,16.2
2023-03-28T09:31:15.690Z,16.1
2023-03-28T09:32:17.958Z,16.2
2023-03-28T09:33:20.347Z,16.2
2023-03-28T09:34:22.506Z,16.1
2023-03-28T09:35:24.783Z,16.2
2023-03-28T09:37:32.267Z,16.2
2023-03-28T09:38:34.410Z,16.1
2023-03-28T09:39:36.551Z,16.2
2023-03-28T09:40:38.681Z,16.2
2023-03-28T09:41:40.781Z,16.1
2023-03-28T09:42:42.880Z,16.1
2023-03-28T09:43:44.984Z,16.2
2023-03-28T09:45:51.992Z,16.2
2023-03-28T09:46:54.375Z,16.2
2023-03-28T09:47:56.477Z,16.2
2023-03-28T09:48:59.491Z,16.1
2023-03-28T09:51:06.920Z,16.2
2023-03-28T09:52:09.128Z,16.1
2023-03-28T09:53:11.214Z,16.1
2023-03-28T09:54:13.313Z,16.2
2023-03-28T09:55:15.422Z,16.2
2023-03-28T09:56:17.321Z,16.2
2023-03-28T09:57:19.599Z,16.2
2023-03-28T09:58:21.724Z,16.1
2023-03-28T09:59:26.993Z,16.2
2023-03-28T10:00:30.431Z,16.2
2023-03-28T10:01:32.717Z,16.2
2023-03-28T10:02:35.260Z,16.2
2023-03-28T10:03:37.554Z,16.2
2023-03-28T10:04:39.983Z,16.2
2023-03-28T10:05:42.560Z,16.2
2023-03-28T10:06:44.493Z,16.1
2023-03-28T10:07:46.650Z,16.1
2023-03-28T10:08:48.875Z,16.1
2023-03-28T10:09:50.784Z,16.1
2023-03-28T10:11:57.929Z,16.2
2023-03-28T10:13:00.020Z,16.3
2023-03-28T10:14:02.115Z,16.2
2023-03-28T10:15:04.255Z,16.2
2023-03-28T10:16:06.541Z,16.2
2023-03-28T10:17:08.759Z,16.1
2023-03-28T10:18:10.898Z,16.2
2023-03-28T10:19:13.252Z,16.2
2023-03-28T10:20:15.520Z,16.2
2023-03-28T10:21:17.852Z,16.2
2023-03-28T10:22:19.971Z,16.2
2023-03-28T10:23:21.910Z,16.2
2023-03-28T10:24:24.044Z,16.1
2023-03-28T10:25:25.954Z,16.2
2023-03-28T10:26:27.916Z,16.2
2023-03-28T10:27:30.067Z,16.1
2023-03-28T10:28:32.019Z,16.2
2023-03-28T10:29:34.085Z,16.2
2023-03-28T10:30:36.025Z,16.2
2023-03-28T10:31:38.300Z,16.1
2023-03-28T10:32:40.814Z,16.1
2023-03-28T10:33:43.072Z,16.1
2023-03-28T10:34:45.303Z,16.2
2023-03-28T10:35:47.597Z,16.2
2023-03-28T10:36:49.843Z,16.2
2023-03-28T10:37:52.017Z,16.1
2023-03-28T10:38:53.962Z,16.2
2023-03-28T10:39:56.044Z,16.2
2023-03-28T10:40:59.156Z,16.2
2023-03-28T10:42:02.695Z,16.1
2023-03-28T10:43:04.805Z,16.2
2023-03-28T10:44:06.930Z,16.1
2023-03-28T10:45:09.035Z,16.1
2023-03-28T10:46:11.173Z,16.2
2023-03-28T10:47:13.236Z,16.1
2023-03-28T10:48:15.164Z,16.2
2023-03-28T10:49:17.303Z,16.2
2023-03-28T10:50:19.471Z,16.2
2023-03-28T10:51:21.687Z,16.2
2023-03-28T10:52:23.941Z,16.1
2023-03-28T10:53:25.880Z,16.1
2023-03-28T10:54:28.009Z,16.1
2023-03-28T10:55:30.091Z,16.2
2023-03-28T10:56:32.026Z,16.2
2023-03-28T10:57:34.168Z,16.2
2023-03-28T10:58:36.298Z,16.2
2023-03-28T10:59:38.464Z,16.2
2023-03-28T11:00:40.447Z,16.1
2023-03-28T11:01:42.241Z,16.1
2023-03-28T11:02:44.617Z,16.2
2023-03-28T11:03:47.132Z,16.3
2023-03-28T11:04:49.884Z,16.2
2023-03-28T11:06:57.010Z,16.1
2023-03-28T11:07:59.223Z,16.2
2023-03-28T11:09:01.267Z,16.1
2023-03-28T11:10:03.284Z,16.1
2023-03-28T11:11:05.415Z,16.2
2023-03-28T11:12:07.550Z,16.1
2023-03-28T11:13:16.048Z,16.1
2023-03-28T11:14:18.164Z,16
2023-03-28T11:15:20.075Z,16.1
2023-03-28T11:16:22.134Z,16.2
2023-03-28T11:17:24.506Z,16.2
2023-03-28T11:19:31.417Z,16.2
2023-03-28T11:20:33.159Z,16.1
2023-03-28T11:21:35.271Z,16.1
2023-03-28T11:22:37.181Z,16.1
2023-03-28T11:23:39.459Z,16.1
2023-03-28T11:24:41.580Z,16.3
2023-03-28T11:25:43.366Z,16.1
2023-03-28T11:26:45.081Z,16.2
2023-03-28T11:27:46.791Z,16.2
2023-03-28T11:28:48.901Z,16.2
2023-03-28T11:29:51.010Z,16.1
2023-03-28T11:30:52.942Z,16.1
2023-03-28T11:31:55.229Z,16.1
2023-03-28T11:32:57.587Z,16.1
2023-03-28T11:33:59.892Z,16.2
2023-03-28T11:35:01.875Z,16.1
2023-03-28T11:36:03.923Z,16.2
2023-03-28T11:37:06.239Z,16.2
2023-03-28T11:38:07.970Z,16.1
2023-03-28T11:39:10.150Z,16.1
2023-03-28T11:40:12.648Z,16.2
2023-03-28T11:41:14.804Z,16.1
2023-03-28T11:42:16.980Z,16.2
2023-03-28T11:43:19.110Z,16.1
2023-03-28T11:44:20.819Z,16.2
2023-03-28T11:46:28.086Z,16.2
2023-03-28T11:47:30.465Z,16.2
2023-03-28T11:48:32.528Z,16.1
2023-03-28T11:49:38.343Z,16.2
2023-03-28T11:50:40.279Z,16.1
2023-03-28T11:51:42.396Z,16.1
2023-03-28T11:52:44.336Z,16.1
2023-03-28T11:53:46.480Z,16.1
2023-03-28T11:54:48.687Z,16.2
2023-03-28T11:55:50.912Z,16.2
2023-03-28T11:56:52.942Z,16.2
2023-03-28T11:57:55.179Z,16.1
2023-03-28T11:58:57.306Z,16.1
2023-03-28T11:59:59.480Z,16.1
2023-03-28T12:01:02.117Z,16.2
2023-03-28T12:02:05.868Z,16.2
2023-03-28T12:03:08.456Z,16.2
2023-03-28T12:04:11.212Z,16.1
2023-03-28T12:05:13.309Z,16.2
2023-03-28T12:06:15.690Z,16.2
2023-03-28T12:07:17.841Z,16.1
2023-03-28T12:08:19.936Z,16.1
2023-03-28T12:09:21.883Z,16.1
2023-03-28T12:10:24.079Z,16.2
2023-03-28T12:11:26.048Z,16.1
2023-03-28T12:12:28.203Z,16.1
2023-03-28T12:13:30.125Z,16.1
2023-03-28T12:14:32.041Z,16.2
2023-03-28T12:15:34.165Z,16.2
2023-03-28T12:16:36.399Z,16.2
2023-03-28T12:17:43.709Z,16.2
2023-03-28T12:18:45.980Z,16.2
2023-03-28T12:19:47.915Z,16.1
2023-03-28T12:20:49.868Z,16.2
2023-03-28T12:21:51.780Z,16.2
2023-03-28T12:22:53.791Z,16.1
2023-03-28T12:23:55.733Z,16.2
2023-03-28T12:24:57.845Z,16.2
2023-03-28T12:26:00.043Z,16.1
2023-03-28T12:27:01.974Z,16.1
2023-03-28T12:28:04.139Z,16.2
2023-03-28T12:29:06.288Z,16.2
2023-03-28T12:30:08.401Z,16.3
2023-03-28T12:31:10.441Z,16.2
2023-03-28T12:32:13.010Z,16.1
2023-03-28T12:33:15.397Z,16.2
2023-03-28T12:34:17.886Z,16.2
2023-03-28T12:35:19.885Z,16.1
2023-03-28T12:36:22.036Z,16.2
2023-03-28T12:37:24.157Z,16.2
2023-03-28T12:38:26.306Z,16.2
2023-03-28T12:39:28.436Z,16.1
2023-03-28T12:40:30.441Z,16.2
2023-03-28T12:41:32.641Z,16.1
2023-03-28T12:42:34.567Z,16.2
2023-03-28T12:43:36.521Z,16.2
2023-03-28T12:44:38.484Z,16.1
2023-03-28T12:45:40.668Z,16.2
2023-03-28T12:46:42.909Z,16.2
2023-03-28T12:47:45.103Z,16.2
2023-03-28T12:48:47.380Z,16.1
2023-03-28T12:49:49.530Z,16.2
2023-03-28T12:50:51.507Z,16.2
2023-03-28T12:51:53.631Z,16.2
2023-03-28T12:52:55.795Z,16.2
2023-03-28T12:53:57.989Z,16.1
2023-03-28T12:55:02.214Z,16.3
2023-03-28T12:56:04.245Z,16.1
2023-03-28T12:57:06.548Z,16.2
2023-03-28T12:58:08.778Z,16.1
2023-03-28T12:59:10.963Z,16.3
2023-03-28T13:00:12.692Z,16.2
2023-03-28T13:01:14.782Z,16.2
2023-03-28T13:02:17.085Z,16.3
2023-03-28T13:03:19.004Z,16.2
2023-03-28T13:04:21.198Z,16.3
2023-03-28T13:05:23.510Z,16.2
2023-03-28T13:06:25.610Z,16.2
2023-03-28T13:07:27.510Z,16.2
2023-03-28T13:08:29.063Z,16.3
2023-03-28T13:09:30.843Z,16.2
2023-03-28T13:10:32.610Z,16.1
2023-03-28T13:11:34.559Z,16.2
2023-03-28T13:12:36.741Z,16.1
2023-03-28T13:13:38.282Z,16.1
2023-03-28T13:14:40.424Z,16.1
2023-03-28T13:15:42.610Z,16.3
2023-03-28T13:16:44.701Z,16.2
2023-03-28T13:17:46.985Z,16.2
2023-03-28T13:18:49.239Z,16.2
2023-03-28T13:19:51.333Z,16.3
2023-03-28T13:20:53.516Z,16.1
2023-03-28T13:21:55.464Z,16.1
2023-03-28T13:22:57.668Z,16.2
2023-03-28T13:23:59.817Z,16.2
2023-03-28T13:25:02.811Z,16.2
2023-03-28T13:26:04.999Z,16.2
2023-03-28T13:27:07.175Z,16.2
2023-03-28T13:28:09.363Z,16.1
2023-03-28T13:29:11.496Z,16.2
2023-03-28T13:30:13.609Z,16.2
2023-03-28T13:32:20.150Z,16.2
2023-03-28T13:33:22.273Z,16.3
2023-03-28T13:34:24.210Z,16.2
2023-03-28T13:35:26.374Z,16.3
2023-03-28T13:36:28.413Z,16.2
2023-03-28T13:37:30.562Z,16.3
2023-03-28T13:38:32.459Z,16.1
2023-03-28T13:39:34.405Z,16.1
2023-03-28T13:40:36.376Z,16.2
2023-03-28T13:41:38.488Z,16.2
2023-03-28T13:42:40.615Z,16.2
2023-03-28T13:43:44.087Z,16.2
2023-03-28T13:44:46.224Z,16.3
2023-03-28T13:45:48.326Z,16.2
2023-03-28T13:46:50.521Z,16.2
2023-03-28T13:48:57.627Z,16.2
2023-03-28T13:49:59.372Z,16.2
2023-03-28T13:51:01.360Z,16.2
2023-03-28T13:52:04.135Z,16.3
2023-03-28T13:53:06.302Z,16.2
2023-03-28T13:54:08.276Z,16.2
2023-03-28T13:55:09.974Z,16.2
2023-03-28T13:56:12.110Z,16.2
2023-03-28T13:57:13.913Z,16.2
2023-03-28T13:59:21.246Z,16.3
2023-03-28T14:00:23.480Z,16.2
2023-03-28T14:01:25.907Z,16.2
2023-03-28T14:02:28.898Z,16.2
2023-03-28T14:03:31.598Z,16.2
2023-03-28T14:04:38.797Z,16.2
2023-03-28T14:05:40.709Z,16.2
2023-03-28T14:06:42.835Z,16.2
2023-03-28T14:07:44.967Z,16.2
2023-03-28T14:08:47.082Z,16.2